Berga II — 7TQI — position and weather

sailwx.info

Track history (hours):
 
Tides and Currents Weather Stations Pressure Air Temp Water Temp Dewpoint Dewpoint Depression Visibility Wind Speed Wind Dir Waves Ship Positions

Berga II

Last reported at 2017-Sep-15 13:44 UTC. Time now 2017-Sep-19 19:07 UTC.
Position N 35°08' E 029°46'.

Length 174 m; draft 9.5 m.

Type: Ship (hazmat cat B). MMSI: 605076051.

Date/timePositionNaut miles runAvg speedWind from/ knotsBaromVisibWave heightAir tempDewpointWater temp
2017-Sep-15 13:44N 35°08' E 029°46'68315.0
2017-Sep-13 16:09N 36°01' E 015°49'215.4
2017-Sep-13 16:00N 36°01' E 015°46'1115.5
2017-Sep-13 15:19N 36°04' E 015°34'515.6
2017-Sep-13 14:59N 36°05' E 015°27'915.6
2017-Sep-13 14:26N 36°07' E 015°17'1115.6
2017-Sep-13 13:43N 36°10' E 015°03'415.9
2017-Sep-13 13:26N 36°11' E 014°58'916.0
2017-Sep-13 12:52N 36°13' E 014°47'615.9
2017-Sep-13 12:30N 36°15' E 014°40'815.9
2017-Sep-13 12:00N 36°17' E 014°31'816.0
2017-Sep-13 11:30N 36°19' E 014°21'816.3
2017-Sep-13 11:00N 36°21' E 014°11'816.2
2017-Sep-13 10:30N 36°24' E 014°02'816.4
2017-Sep-13 09:59N 36°26' E 013°52'816.2
2017-Sep-13 09:30N 36°29' E 013°43'815.9
2017-Sep-13 08:59N 36°32' E 013°33'815.9
2017-Sep-13 08:30N 36°34' E 013°24'815.8
2017-Sep-13 08:00N 36°37' E 013°15'815.7
2017-Sep-13 07:30N 36°39' E 013°05'815.7
2017-Sep-13 07:00N 36°42' E 012°56'815.7
2017-Sep-13 06:30N 36°44' E 012°47'1015.9
2017-Sep-13 05:54N 36°47' E 012°35'615.6
2017-Sep-13 05:29N 36°49' E 012°28'815.4
2017-Sep-13 05:00N 36°52' E 012°19'815.2
2017-Sep-13 04:30N 36°55' E 012°10'815.5
2017-Sep-13 04:00N 36°58' E 012°02'815.3
2017-Sep-13 03:29N 37°02' E 011°53'715.3
2017-Sep-13 03:00N 37°06' E 011°45'815.3
2017-Sep-13 02:30N 37°10' E 011°37'1815.4
2017-Sep-13 01:18N 37°19' E 011°17'615.6
2017-Sep-13 00:56N 37°21' E 011°10'715.4
2017-Sep-13 00:30N 37°23' E 011°02'815.4
2017-Sep-13 00:00N 37°25' E 010°53'815.3
2017-Sep-12 23:30N 37°26' E 010°43'815.1
2017-Sep-12 22:57N 37°31' E 010°34'715.4
2017-Sep-12 22:30N 37°31' E 010°25'815.6
2017-Sep-12 22:00N 37°33' E 010°16'815.8
2017-Sep-12 21:29N 37°34' E 010°06'5415.7
2017-Sep-12 18:05N 37°21' E 008°60'115.4
2017-Sep-12 17:59N 37°21' E 008°58'13010.1
2017-Sep-12 05:04N 37°12' E 006°15'215.3
2017-Sep-12 04:57N 37°11' E 006°13'715.3
2017-Sep-12 04:28N 37°10' E 006°04'815.2
2017-Sep-12 03:56N 37°09' E 005°54'715.4
2017-Sep-12 03:29N 37°08' E 005°45'1915.5
2017-Sep-12 02:14N 37°06' E 005°21'415.4
2017-Sep-12 02:00N 37°06' E 005°17'815.5
2017-Sep-12 01:30N 37°06' E 005°07'815.3
2017-Sep-12 01:00N 37°06' E 004°57'815.4
2017-Sep-12 00:30N 37°06' E 004°48'815.3
2017-Sep-12 00:00N 37°06' E 004°38'815.4
2017-Sep-11 23:30N 37°06' E 004°28'815.3
2017-Sep-11 23:00N 37°06' E 004°19'815.3
2017-Sep-11 22:30N 37°06' E 004°09'815.5
2017-Sep-11 22:00N 37°05' E 003°60'815.4
2017-Sep-11 21:30N 37°05' E 003°50'815.3
2017-Sep-11 21:00N 37°04' E 003°40'1515.2
2017-Sep-11 20:02N 37°03' E 003°22'215.2
2017-Sep-11 19:52N 37°02' E 003°19'615.2
2017-Sep-11 19:30N 37°02' E 003°12'815.4
2017-Sep-11 19:00N 37°01' E 003°02'815.6
2017-Sep-11 18:30N 36°60' E 002°53'815.7
2017-Sep-11 18:00N 36°58' E 002°43'815.5
2017-Sep-11 17:30N 36°57' E 002°34'815.2
2017-Sep-11 17:00N 36°55' E 002°24'1114.9
2017-Sep-11 16:17N 36°52' E 002°11'714.6
2017-Sep-11 15:49N 36°51' E 002°03'514.7
2017-Sep-11 15:28N 36°50' E 001°57'714.9
2017-Sep-11 15:00N 36°48' E 001°48'715.0
2017-Sep-11 14:30N 36°47' E 001°39'815.5
2017-Sep-11 13:59N 36°45' E 001°29'816.1
2017-Sep-11 13:30N 36°44' E 001°20'816.3
2017-Sep-11 13:00N 36°42' E 001°10'816.0
2017-Sep-11 12:30N 36°40' E 001°00'816.2
2017-Sep-11 12:00N 36°37' E 000°51'816.5
2017-Sep-11 11:30N 36°33' E 000°42'816.5
2017-Sep-11 11:00N 36°29' E 000°33'816.6
2017-Sep-11 10:30N 36°25' E 000°24'916.7
2017-Sep-11 10:00N 36°21' E 000°15'2715.5
2017-Sep-11 08:16N 36°01' W 000°07'615.4
2017-Sep-11 07:52N 35°55' W 000°11'411.2
2017-Sep-11 07:28N 35°52' W 000°14'  
2017-Sep-08 18:35N 35°49' W 000°15'0 0.1
2017-Sep-08 18:30N 35°49' W 000°15'2 2.6
2017-Sep-08 17:45N 35°50' W 000°13'0 0.6
2017-Sep-08 17:30N 35°50' W 000°13'2 0.0
2017-Sep-06 22:30N 35°51' W 000°11'0 0.0
2017-Sep-06 20:06N 35°51' W 000°11'0 0.1
2017-Sep-06 20:00N 35°51' W 000°11'0 0.0
2017-Sep-06 17:36N 35°51' W 000°11'0 0.1
2017-Sep-06 17:30N 35°51' W 000°11'0 0.0
2017-Sep-06 16:54N 35°51' W 000°11'0 0.0
2017-Sep-06 12:45N 35°51' W 000°11'0 0.0
2017-Sep-06 12:27N 35°51' W 000°11'0 0.0
2017-Sep-06 12:00N 35°51' W 000°11'0 0.0
2017-Sep-06 11:21N 35°51' W 000°11'0 0.0
2017-Sep-06 10:15N 35°51' W 000°11'0 0.0
2017-Sep-06 09:57N 35°51' W 000°11'0 0.0
2017-Sep-06 08:33N 35°51' W 000°11'0 0.0
2017-Sep-06 04:39N 35°51' W 000°11'0 0.0
2017-Sep-06 04:21N 35°51' W 000°11'0 0.0
2017-Sep-06 03:24N 35°51' W 000°11'0 0.0
2017-Sep-06 02:00N 35°51' W 000°11'0 0.0
2017-Sep-05 23:03N 35°51' W 000°11'0 0.0
2017-Sep-05 23:00N 35°51' W 000°11'0 0.0
2017-Sep-05 21:21N 35°51' W 000°11'0 0.0
2017-Sep-05 20:48N 35°51' W 000°11'0 0.0
2017-Sep-05 19:21N 35°51' W 000°11'0 0.0
2017-Sep-05 18:57N 35°51' W 000°11'  
Track history (hours):
 
Tides and Currents Weather Stations Pressure Air Temp Water Temp Dewpoint Dewpoint Depression Visibility Wind Speed Wind Dir Waves Ship Positions

Berga II

Last reported at 2017-Sep-15 13:44 UTC. Time now 2017-Sep-19 19:07 UTC.
Position N 35°08' E 029°46'.

Length 174 m; draft 9.5 m.

Type: Ship (hazmat cat B). MMSI: 605076051.

Date/timePositionNaut miles runAvg speedWind from/ knotsBaromVisibWave heightAir tempDewpointWater temp
2017-Sep-15 13:44N 35°08' E 029°46'68315.0
2017-Sep-13 16:09N 36°01' E 015°49'215.4
2017-Sep-13 16:00N 36°01' E 015°46'1115.5
2017-Sep-13 15:19N 36°04' E 015°34'515.6
2017-Sep-13 14:59N 36°05' E 015°27'915.6
2017-Sep-13 14:26N 36°07' E 015°17'1115.6
2017-Sep-13 13:43N 36°10' E 015°03'415.9
2017-Sep-13 13:26N 36°11' E 014°58'916.0
2017-Sep-13 12:52N 36°13' E 014°47'615.9
2017-Sep-13 12:30N 36°15' E 014°40'815.9
2017-Sep-13 12:00N 36°17' E 014°31'816.0
2017-Sep-13 11:30N 36°19' E 014°21'816.3
2017-Sep-13 11:00N 36°21' E 014°11'816.2
2017-Sep-13 10:30N 36°24' E 014°02'816.4
2017-Sep-13 09:59N 36°26' E 013°52'816.2
2017-Sep-13 09:30N 36°29' E 013°43'815.9
2017-Sep-13 08:59N 36°32' E 013°33'815.9
2017-Sep-13 08:30N 36°34' E 013°24'815.8
2017-Sep-13 08:00N 36°37' E 013°15'815.7
2017-Sep-13 07:30N 36°39' E 013°05'815.7
2017-Sep-13 07:00N 36°42' E 012°56'815.7
2017-Sep-13 06:30N 36°44' E 012°47'1015.9
2017-Sep-13 05:54N 36°47' E 012°35'615.6
2017-Sep-13 05:29N 36°49' E 012°28'815.4
2017-Sep-13 05:00N 36°52' E 012°19'815.2
2017-Sep-13 04:30N 36°55' E 012°10'815.5
2017-Sep-13 04:00N 36°58' E 012°02'815.3
2017-Sep-13 03:29N 37°02' E 011°53'715.3
2017-Sep-13 03:00N 37°06' E 011°45'815.3
2017-Sep-13 02:30N 37°10' E 011°37'1815.4
2017-Sep-13 01:18N 37°19' E 011°17'615.6
2017-Sep-13 00:56N 37°21' E 011°10'715.4
2017-Sep-13 00:30N 37°23' E 011°02'815.4
2017-Sep-13 00:00N 37°25' E 010°53'815.3
2017-Sep-12 23:30N 37°26' E 010°43'815.1
2017-Sep-12 22:57N 37°31' E 010°34'715.4
2017-Sep-12 22:30N 37°31' E 010°25'815.6
2017-Sep-12 22:00N 37°33' E 010°16'815.8
2017-Sep-12 21:29N 37°34' E 010°06'5415.7
2017-Sep-12 18:05N 37°21' E 008°60'115.4
2017-Sep-12 17:59N 37°21' E 008°58'13010.1
2017-Sep-12 05:04N 37°12' E 006°15'215.3
2017-Sep-12 04:57N 37°11' E 006°13'715.3
2017-Sep-12 04:28N 37°10' E 006°04'815.2
2017-Sep-12 03:56N 37°09' E 005°54'715.4
2017-Sep-12 03:29N 37°08' E 005°45'1915.5
2017-Sep-12 02:14N 37°06' E 005°21'415.4
2017-Sep-12 02:00N 37°06' E 005°17'815.5
2017-Sep-12 01:30N 37°06' E 005°07'815.3
2017-Sep-12 01:00N 37°06' E 004°57'815.4
2017-Sep-12 00:30N 37°06' E 004°48'815.3
2017-Sep-12 00:00N 37°06' E 004°38'815.4
2017-Sep-11 23:30N 37°06' E 004°28'815.3
2017-Sep-11 23:00N 37°06' E 004°19'815.3
2017-Sep-11 22:30N 37°06' E 004°09'815.5
2017-Sep-11 22:00N 37°05' E 003°60'815.4
2017-Sep-11 21:30N 37°05' E 003°50'815.3
2017-Sep-11 21:00N 37°04' E 003°40'1515.2
2017-Sep-11 20:02N 37°03' E 003°22'215.2
2017-Sep-11 19:52N 37°02' E 003°19'615.2
2017-Sep-11 19:30N 37°02' E 003°12'815.4
2017-Sep-11 19:00N 37°01' E 003°02'815.6
2017-Sep-11 18:30N 36°60' E 002°53'815.7
2017-Sep-11 18:00N 36°58' E 002°43'815.5
2017-Sep-11 17:30N 36°57' E 002°34'815.2
2017-Sep-11 17:00N 36°55' E 002°24'1114.9
2017-Sep-11 16:17N 36°52' E 002°11'714.6
2017-Sep-11 15:49N 36°51' E 002°03'514.7
2017-Sep-11 15:28N 36°50' E 001°57'714.9
2017-Sep-11 15:00N 36°48' E 001°48'715.0
2017-Sep-11 14:30N 36°47' E 001°39'815.5
2017-Sep-11 13:59N 36°45' E 001°29'816.1
2017-Sep-11 13:30N 36°44' E 001°20'816.3
2017-Sep-11 13:00N 36°42' E 001°10'816.0
2017-Sep-11 12:30N 36°40' E 001°00'816.2
2017-Sep-11 12:00N 36°37' E 000°51'816.5
2017-Sep-11 11:30N 36°33' E 000°42'816.5
2017-Sep-11 11:00N 36°29' E 000°33'816.6
2017-Sep-11 10:30N 36°25' E 000°24'916.7
2017-Sep-11 10:00N 36°21' E 000°15'2715.5
2017-Sep-11 08:16N 36°01' W 000°07'615.4
2017-Sep-11 07:52N 35°55' W 000°11'411.2
2017-Sep-11 07:28N 35°52' W 000°14'  
2017-Sep-08 18:35N 35°49' W 000°15'0 0.1
2017-Sep-08 18:30N 35°49' W 000°15'2 2.6
2017-Sep-08 17:45N 35°50' W 000°13'0 0.6
2017-Sep-08 17:30N 35°50' W 000°13'2 0.0
2017-Sep-06 22:30N 35°51' W 000°11'0 0.0
2017-Sep-06 20:06N 35°51' W 000°11'0 0.1
2017-Sep-06 20:00N 35°51' W 000°11'0 0.0
2017-Sep-06 17:36N 35°51' W 000°11'0 0.1
2017-Sep-06 17:30N 35°51' W 000°11'0 0.0
2017-Sep-06 16:54N 35°51' W 000°11'0 0.0
2017-Sep-06 12:45N 35°51' W 000°11'0 0.0
2017-Sep-06 12:27N 35°51' W 000°11'0 0.0
2017-Sep-06 12:00N 35°51' W 000°11'0 0.0
2017-Sep-06 11:21N 35°51' W 000°11'0 0.0
2017-Sep-06 10:15N 35°51' W 000°11'0 0.0
2017-Sep-06 09:57N 35°51' W 000°11'0 0.0
2017-Sep-06 08:33N 35°51' W 000°11'0 0.0
2017-Sep-06 04:39N 35°51' W 000°11'0 0.0
2017-Sep-06 04:21N 35°51' W 000°11'0 0.0
2017-Sep-06 03:24N 35°51' W 000°11'0 0.0
2017-Sep-06 02:00N 35°51' W 000°11'0 0.0
2017-Sep-05 23:03N 35°51' W 000°11'0 0.0
2017-Sep-05 23:00N 35°51' W 000°11'0 0.0
2017-Sep-05 21:21N 35°51' W 000°11'0 0.0
2017-Sep-05 20:48N 35°51' W 000°11'0 0.0
2017-Sep-05 19:21N 35°51' W 000°11'0 0.0
2017-Sep-05 18:57N 35°51' W 000°11'  

Dump ship's entire track history